Time,TemperatureF,DewpointF,PressureIn,WindDirection,WindDirectionDegrees,WindSpeedMPH,WindSpeedGustMPH,Humidity,HourlyPrecipIn,Conditions,Clouds,dailyrainin,SoftwareType,DateUTC
2013-05-15 00:02:00,69.0,50.0,29.66,North,1,10.0,14.0,50,0.00,,,0.00,,2013-05-15 05:02:00,
2013-05-15 00:12:00,68.0,49.0,29.66,North,5,6.0,13.0,51,0.00,,,0.00,,2013-05-15 05:12:00,
2013-05-15 00:22:00,68.0,49.0,29.66,North,5,6.0,13.0,51,0.00,,,0.00,,2013-05-15 05:22:00,
2013-05-15 00:32:00,68.0,50.0,29.67,North,358,5.0,18.0,53,0.00,,,0.00,,2013-05-15 05:32:00,
2013-05-15 00:42:00,68.0,50.0,29.67,North,358,5.0,18.0,53,0.00,,,0.00,,2013-05-15 05:42:00,
2013-05-15 00:52:00,67.0,50.0,29.68,North,4,0.0,4.0,55,0.00,,,0.00,,2013-05-15 05:52:00,
2013-05-15 01:02:00,66.0,50.0,29.70,NNW,327,0.0,7.0,57,0.00,,,0.00,,2013-05-15 06:02:00,
2013-05-15 01:11:00,65.0,50.0,29.70,North,11,5.0,9.0,58,0.00,,,0.00,,2013-05-15 06:11:00,
2013-05-15 01:21:00,65.0,50.0,29.70,North,11,5.0,9.0,58,0.00,,,0.00,,2013-05-15 06:21:00,
2013-05-15 01:32:00,65.0,50.0,29.71,NW,306,3.0,8.0,59,0.00,,,0.00,,2013-05-15 06:32:00,
2013-05-15 01:41:00,64.0,50.0,29.72,North,358,10.0,17.0,60,0.00,,,0.00,,2013-05-15 06:41:00,
2013-05-15 01:52:00,64.0,50.0,29.72,North,358,10.0,17.0,60,0.00,,,0.00,,2013-05-15 06:52:00,
2013-05-15 02:01:00,63.0,50.0,29.72,NNE,16,7.0,12.0,62,0.00,,,0.00,,2013-05-15 07:01:00,
2013-05-15 02:11:00,62.0,49.0,29.73,NNE,15,5.0,16.0,62,0.00,,,0.00,,2013-05-15 07:11:00,
2013-05-15 02:21:00,62.0,49.0,29.73,NNE,15,5.0,16.0,62,0.00,,,0.00,,2013-05-15 07:21:00,
2013-05-15 02:32:00,61.0,48.0,29.75,North,8,11.0,12.0,63,0.00,,,0.00,,2013-05-15 07:32:00,
2013-05-15 02:41:00,61.0,48.0,29.75,North,8,11.0,12.0,63,0.00,,,0.00,,2013-05-15 07:41:00,
2013-05-15 02:52:00,61.0,48.0,29.75,North,2,8.0,15.0,63,0.00,,,0.00,,2013-05-15 07:52:00,
2013-05-15 03:02:00,60.0,48.0,29.75,East,84,7.0,10.0,64,0.00,,,0.00,,2013-05-15 08:02:00,
2013-05-15 03:12:00,59.0,47.0,29.76,NNE,26,11.0,13.0,64,0.00,,,0.00,,2013-05-15 08:12:00,
2013-05-15 03:21:00,59.0,47.0,29.76,NNE,26,11.0,13.0,64,0.00,,,0.00,,2013-05-15 08:21:00,
2013-05-15 03:32:00,59.0,47.0,29.77,NE,46,6.0,12.0,65,0.00,,,0.00,,2013-05-15 08:32:00,
2013-05-15 03:42:00,59.0,48.0,29.77,North,358,5.0,9.0,66,0.00,,,0.00,,2013-05-15 08:42:00,
2013-05-15 03:53:00,59.0,48.0,29.77,North,358,5.0,9.0,66,0.00,,,0.00,,2013-05-15 08:53:00,
2013-05-15 04:01:00,58.0,47.0,29.78,North,5,9.0,10.0,67,0.00,,,0.00,,2013-05-15 09:01:00,
2013-05-15 04:11:00,58.0,47.0,29.79,North,358,0.0,8.0,67,0.00,,,0.00,,2013-05-15 09:11:00,
2013-05-15 04:21:00,58.0,47.0,29.79,North,358,0.0,8.0,67,0.00,,,0.00,,2013-05-15 09:21:00,
2013-05-15 04:32:00,57.0,47.0,29.79,NNE,33,0.0,6.0,69,0.00,,,0.00,,2013-05-15 09:32:00,
2013-05-15 04:42:00,57.0,47.0,29.80,NNE,22,0.0,5.0,70,0.00,,,0.00,,2013-05-15 09:42:00,
2013-05-15 04:53:00,57.0,47.0,29.80,NNE,22,0.0,5.0,70,0.00,,,0.00,,2013-05-15 09:53:00,
2013-05-15 05:02:00,56.0,46.0,29.80,North,2,5.0,8.0,70,0.00,,,0.00,,2013-05-15 10:02:00,
2013-05-15 05:12:00,56.0,47.0,29.82,North,358,0.0,0.0,72,0.00,,,0.00,,2013-05-15 10:12:00,
2013-05-15 05:22:00,56.0,47.0,29.82,North,358,0.0,0.0,72,0.00,,,0.00,,2013-05-15 10:22:00,
2013-05-15 05:32:00,55.0,47.0,29.82,SSW,212,0.0,0.0,73,0.00,,,0.00,,2013-05-15 10:32:00,
2013-05-15 05:42:00,54.0,46.0,29.82,SSW,212,0.0,0.0,75,0.00,,,0.00,,2013-05-15 10:42:00,
2013-05-15 05:52:00,54.0,46.0,29.82,SSW,212,0.0,0.0,75,0.00,,,0.00,,2013-05-15 10:52:00,
2013-05-15 06:08:00,54.0,47.0,29.83,SSW,212,0.0,0.0,76,0.00,,,0.00,,2013-05-15 11:08:00,
2013-05-15 06:17:00,54.0,47.0,29.85,SSW,212,0.0,0.0,78,0.00,,,0.00,,2013-05-15 11:17:00,
2013-05-15 06:26:00,54.0,47.0,29.85,SSW,212,0.0,0.0,78,0.00,,,0.00,,2013-05-15 11:26:00,
2013-05-15 06:35:00,53.0,47.0,29.85,SSW,212,0.0,0.0,79,0.00,,,0.00,,2013-05-15 11:35:00,
2013-05-15 06:47:00,53.0,47.0,29.88,SSW,212,0.0,0.0,79,0.00,,,0.00,,2013-05-15 11:47:00,
2013-05-15 06:58:00,53.0,47.0,29.88,SSW,212,0.0,0.0,79,0.00,,,0.00,,2013-05-15 11:58:00,
2013-05-15 07:06:00,53.0,47.0,29.87,SSW,212,0.0,0.0,79,0.00,,,0.00,,2013-05-15 12:06:00,
2013-05-15 07:13:00,53.0,47.0,29.87,SSW,212,0.0,0.0,79,0.00,,,0.00,,2013-05-15 12:13:00,
2013-05-15 07:35:00,54.0,47.0,29.89,NW,319,0.0,0.0,77,0.00,,,0.00,,2013-05-15 12:35:00,
2013-05-15 07:46:00,54.0,47.0,29.89,NW,319,0.0,0.0,77,0.00,,,0.00,,2013-05-15 12:46:00,
2013-05-15 07:57:00,55.0,47.0,29.90,NW,305,0.0,0.0,74,0.00,,,0.00,,2013-05-15 12:57:00,
2013-05-15 08:17:00,58.0,48.0,29.90,North,2,3.0,5.0,70,0.00,,,0.00,,2013-05-15 13:17:00,
2013-05-15 08:24:00,58.0,48.0,29.90,North,2,3.0,5.0,70,0.00,,,0.00,,2013-05-15 13:24:00,
2013-05-15 08:35:00,58.0,47.0,29.91,NNE,28,3.0,7.0,68,0.00,,,0.00,,2013-05-15 13:35:00,
2013-05-15 08:46:00,58.0,47.0,29.91,NNE,28,3.0,7.0,68,0.00,,,0.00,,2013-05-15 13:46:00,
2013-05-15 08:58:00,60.0,49.0,29.89,NNE,16,0.0,0.0,67,0.00,,,0.00,,2013-05-15 13:58:00,
2013-05-15 09:05:00,60.0,49.0,29.89,NNE,16,0.0,0.0,66,0.00,,,0.00,,2013-05-15 14:05:00,
2013-05-15 09:13:00,59.0,48.0,29.90,North,355,0.0,6.0,67,0.00,,,0.00,,2013-05-15 14:13:00,
2013-05-15 09:25:00,59.0,48.0,29.90,North,355,0.0,6.0,67,0.00,,,0.00,,2013-05-15 14:25:00,
2013-05-15 09:36:00,59.0,48.0,29.89,North,355,0.0,0.0,67,0.00,,,0.00,,2013-05-15 14:36:00,
2013-05-15 09:44:00,59.0,48.0,29.89,North,355,0.0,0.0,67,0.00,,,0.00,,2013-05-15 14:44:00,
2013-05-15 09:53:00,59.0,48.0,29.88,North,355,0.0,0.0,67,0.00,,,0.00,,2013-05-15 14:53:00,
2013-05-15 10:08:00,59.0,48.0,29.87,ENE,68,4.0,5.0,68,0.00,,,0.00,,2013-05-15 15:08:00,
2013-05-15 10:15:00,59.0,49.0,29.88,NNE,14,5.0,6.0,69,0.00,,,0.00,,2013-05-15 15:15:00,
2013-05-15 10:27:00,59.0,49.0,29.88,NNE,14,5.0,6.0,69,0.00,,,0.00,,2013-05-15 15:27:00,
2013-05-15 10:36:00,60.0,49.0,29.88,North,351,0.0,0.0,67,0.00,,,0.00,,2013-05-15 15:36:00,
2013-05-15 11:00:00,60.0,49.0,29.88,North,351,0.0,5.0,66,0.00,,,0.00,,2013-05-15 16:00:00,
2013-05-15 11:07:00,61.0,49.0,29.89,North,351,0.0,0.0,65,0.00,,,0.00,,2013-05-15 16:07:00,
2013-05-15 11:19:00,62.0,49.0,29.90,NW,315,0.0,3.0,63,0.00,,,0.00,,2013-05-15 16:19:00,
2013-05-15 11:27:00,62.0,49.0,29.90,NW,315,0.0,3.0,63,0.00,,,0.00,,2013-05-15 16:27:00,
2013-05-15 11:34:00,61.0,51.0,29.91,NW,317,2.0,9.0,69,0.00,,,0.00,,2013-05-15 16:34:00,
2013-05-15 11:47:00,61.0,51.0,29.91,NW,317,2.0,9.0,69,0.00,,,0.00,,2013-05-15 16:47:00,
2013-05-15 11:58:00,60.0,50.0,29.91,NNW,340,6.0,10.0,69,0.00,,,0.00,,2013-05-15 16:58:00,
2013-05-15 12:08:00,61.0,50.0,29.91,WNW,285,3.0,8.0,66,0.00,,,0.00,,2013-05-15 17:08:00,
2013-05-15 12:16:00,62.0,50.0,29.91,West,272,8.0,12.0,64,0.00,,,0.00,,2013-05-15 17:16:00,
2013-05-15 12:26:00,62.0,50.0,29.91,West,272,8.0,12.0,64,0.00,,,0.00,,2013-05-15 17:26:00,
2013-05-15 12:36:00,63.0,50.0,29.90,WNW,285,7.0,11.0,62,0.00,,,0.00,,2013-05-15 17:36:00,
2013-05-15 12:45:00,63.0,50.0,29.90,WNW,285,7.0,11.0,62,0.00,,,0.00,,2013-05-15 17:45:00,
2013-05-15 12:55:00,64.0,52.0,29.89,West,275,6.0,11.0,64,0.00,,,0.00,,2013-05-15 17:55:00,
2013-05-15 13:05:00,66.0,52.0,29.89,West,277,7.0,10.0,61,0.00,,,0.00,,2013-05-15 18:05:00,
2013-05-15 13:14:00,66.0,50.0,29.88,WNW,284,5.0,10.0,56,0.00,,,0.00,,2013-05-15 18:14:00,
2013-05-15 13:26:00,66.0,50.0,29.88,WNW,284,5.0,10.0,56,0.00,,,0.00,,2013-05-15 18:26:00,
2013-05-15 13:35:00,66.0,50.0,29.88,NW,322,8.0,12.0,57,0.00,,,0.00,,2013-05-15 18:35:00,
2013-05-15 13:46:00,66.0,50.0,29.88,NW,322,8.0,12.0,57,0.00,,,0.00,,2013-05-15 18:46:00,
2013-05-15 14:06:00,68.0,49.0,29.87,West,275,6.0,17.0,51,0.00,,,0.00,,2013-05-15 19:06:00,
2013-05-15 14:14:00,68.0,49.0,29.87,West,275,6.0,17.0,51,0.00,,,0.00,,2013-05-15 19:14:00,
2013-05-15 14:28:00,69.0,50.0,29.87,West,262,5.0,6.0,50,0.00,,,0.00,,2013-05-15 19:28:00,
2013-05-15 14:44:00,70.0,49.0,29.86,West,262,0.0,6.0,47,0.00,,,0.00,,2013-05-15 19:44:00,
2013-05-15 14:56:00,70.0,49.0,29.86,West,262,0.0,6.0,47,0.00,,,0.00,,2013-05-15 19:56:00,
2013-05-15 15:06:00,71.0,49.0,29.85,NW,317,6.0,12.0,45,0.00,,,0.00,,2013-05-15 20:06:00,
2013-05-15 15:28:00,72.0,48.0,29.85,NNW,334,6.0,8.0,43,0.00,,,0.00,,2013-05-15 20:28:00,
2013-05-15 15:37:00,72.0,48.0,29.85,WSW,253,4.0,8.0,43,0.00,,,0.00,,2013-05-15 20:37:00,
2013-05-15 15:47:00,72.0,48.0,29.85,WSW,253,4.0,8.0,43,0.00,,,0.00,,2013-05-15 20:47:00,
2013-05-15 15:56:00,73.0,49.0,29.84,NNW,337,6.0,9.0,42,0.00,,,0.00,,2013-05-15 20:56:00,
2013-05-15 16:06:00,74.0,49.0,29.83,NW,305,4.0,7.0,41,0.00,,,0.00,,2013-05-15 21:06:00,
2013-05-15 16:19:00,74.0,47.0,29.83,West,264,4.0,13.0,39,0.00,,,0.00,,2013-05-15 21:19:00,
2013-05-15 16:26:00,74.0,47.0,29.83,West,264,4.0,13.0,39,0.00,,,0.00,,2013-05-15 21:26:00,
2013-05-15 16:38:00,73.0,48.0,29.83,NW,307,0.0,10.0,41,0.00,,,0.00,,2013-05-15 21:38:00,
2013-05-15 17:00:00,75.0,49.0,29.82,NW,307,6.0,10.0,40,0.00,,,0.00,,2013-05-15 22:00:00,
2013-05-15 17:08:00,76.0,50.0,29.81,WSW,254,7.0,11.0,40,0.00,,,0.00,,2013-05-15 22:08:00,
2013-05-15 17:17:00,76.0,50.0,29.81,WSW,254,7.0,11.0,40,0.00,,,0.00,,2013-05-15 22:17:00,
2013-05-15 17:27:00,76.0,50.0,29.80,WNW,286,5.0,10.0,40,0.00,,,0.00,,2013-05-15 22:27:00,
2013-05-15 17:47:00,75.0,50.0,29.80,WNW,289,7.0,14.0,42,0.00,,,0.00,,2013-05-15 22:47:00,
2013-05-15 17:54:00,76.0,51.0,29.80,WNW,286,7.0,11.0,42,0.00,,,0.00,,2013-05-15 22:54:00,
2013-05-15 18:07:00,75.0,51.0,29.80,NNW,344,5.0,9.0,43,0.00,,,0.00,,2013-05-15 23:07:00,
2013-05-15 18:14:00,75.0,51.0,29.80,NNW,344,5.0,9.0,43,0.00,,,0.00,,2013-05-15 23:14:00,
2013-05-15 18:27:00,75.0,52.0,29.80,WNW,302,7.0,13.0,44,0.00,,,0.00,,2013-05-15 23:27:00,
2013-05-15 18:38:00,76.0,51.0,29.80,NW,310,8.0,11.0,42,0.00,,,0.00,,2013-05-15 23:38:00,
2013-05-15 19:16:00,75.0,52.0,29.78,NNW,330,7.0,16.0,45,0.00,,,0.00,,2013-05-16 00:16:00,
2013-05-15 19:25:00,75.0,52.0,29.78,NNW,330,7.0,16.0,45,0.00,,,0.00,,2013-05-16 00:25:00,
2013-05-15 19:35:00,75.0,53.0,29.78,West,270,6.0,9.0,46,0.00,,,0.00,,2013-05-16 00:35:00,
2013-05-15 19:47:00,75.0,53.0,29.78,West,277,7.0,14.0,46,0.00,,,0.00,,2013-05-16 00:47:00,
2013-05-15 19:58:00,75.0,53.0,29.78,West,277,7.0,14.0,46,0.00,,,0.00,,2013-05-16 00:58:00,
2013-05-15 20:05:00,74.0,53.0,29.78,NW,322,5.0,9.0,48,0.00,,,0.00,,2013-05-16 01:05:00,
2013-05-15 20:14:00,73.0,52.0,29.78,WNW,292,8.0,10.0,48,0.00,,,0.00,,2013-05-16 01:14:00,
2013-05-15 20:27:00,73.0,52.0,29.78,WNW,292,8.0,10.0,48,0.00,,,0.00,,2013-05-16 01:27:00,
2013-05-15 20:35:00,72.0,52.0,29.78,West,278,7.0,10.0,49,0.00,,,0.00,,2013-05-16 01:35:00,
2013-05-15 20:47:00,72.0,52.0,29.78,West,278,7.0,10.0,49,0.00,,,0.00,,2013-05-16 01:47:00,
2013-05-15 20:59:00,72.0,52.0,29.79,WSW,255,3.0,9.0,50,0.00,,,0.00,,2013-05-16 01:59:00,
2013-05-15 21:06:00,71.0,52.0,29.79,West,274,4.0,7.0,51,0.00,,,0.00,,2013-05-16 02:06:00,
2013-05-15 21:15:00,70.0,52.0,29.79,West,268,6.0,6.0,53,0.00,,,0.00,,2013-05-16 02:15:00,
2013-05-15 21:26:00,70.0,52.0,29.79,West,268,6.0,6.0,53,0.00,,,0.00,,2013-05-16 02:26:00,
2013-05-15 21:36:00,70.0,53.0,29.79,WSW,248,3.0,6.0,54,0.00,,,0.00,,2013-05-16 02:36:00,
2013-05-15 21:55:00,70.0,53.0,29.79,WSW,248,3.0,6.0,54,0.00,,,0.00,,2013-05-16 02:55:00,
2013-05-15 22:05:00,68.0,51.0,29.80,WSW,257,0.0,3.0,55,0.00,,,0.00,,2013-05-16 03:05:00,
2013-05-15 22:14:00,68.0,52.0,29.80,West,262,0.0,0.0,57,0.00,,,0.00,,2013-05-16 03:14:00,
2013-05-15 22:25:00,68.0,52.0,29.80,West,262,0.0,0.0,57,0.00,,,0.00,,2013-05-16 03:25:00,
2013-05-15 22:36:00,67.0,51.0,29.80,West,264,0.0,4.0,57,0.00,,,0.00,,2013-05-16 03:36:00,
2013-05-15 22:44:00,67.0,51.0,29.80,West,264,0.0,4.0,57,0.00,,,0.00,,2013-05-16 03:44:00,
2013-05-15 22:56:00,67.0,51.0,29.80,WSW,250,4.0,8.0,56,0.00,,,0.00,,2013-05-16 03:56:00,
2013-05-15 23:02:00,67.0,50.0,29.80,West,278,4.0,6.0,54,0.00,,,0.00,,2013-05-16 04:02:00,
2013-05-15 23:12:00,68.0,50.0,29.80,West,267,4.0,6.0,53,0.00,,,0.00,,2013-05-16 04:12:00,
2013-05-15 23:23:00,68.0,50.0,29.80,West,267,4.0,6.0,53,0.00,,,0.00,,2013-05-16 04:23:00,
2013-05-15 23:33:00,67.0,50.0,29.80,NW,313,3.0,6.0,54,0.00,,,0.00,,2013-05-16 04:33:00,
2013-05-15 23:42:00,67.0,50.0,29.80,NW,313,3.0,6.0,54,0.00,,,0.00,,2013-05-16 04:42:00,
2013-05-15 23:53:00,67.0,50.0,29.81,WNW,295,0.0,7.0,54,0.00,,,0.00,,2013-05-16 04:53:00,